createdAt,value
2018-09-14T00:01:02.625Z,98378.94
2018-09-14T00:03:33.791Z,98378.77
2018-09-14T00:06:05.569Z,98379.55
2018-09-14T00:08:38.071Z,98370.76
2018-09-14T00:11:09.278Z,98372.41
2018-09-14T00:13:39.691Z,98378.14
2018-09-14T00:16:10.057Z,98383.36
2018-09-14T00:18:40.895Z,98378.87
2018-09-14T00:21:11.225Z,98383.23
2018-09-14T00:23:42.641Z,98379.56
2018-09-14T00:26:12.909Z,98379.84
2018-09-14T00:28:43.593Z,98376.89
2018-09-14T00:31:14.629Z,98377.02
2018-09-14T00:33:46.557Z,98375.77
2018-09-14T00:36:18.266Z,98378.69
2018-09-14T00:38:48.945Z,98372.72
2018-09-14T00:41:21.379Z,98378.21
2018-09-14T00:43:52.999Z,98372.34
2018-09-14T00:46:23.414Z,98379.16
2018-09-14T00:48:53.631Z,98375.14
2018-09-14T00:51:24.751Z,98377.90
2018-09-14T00:54:02.092Z,98375.95
2018-09-14T00:56:33.129Z,98367.11
2018-09-14T00:59:03.539Z,98366.92
2018-09-14T01:01:34.986Z,98369.18
2018-09-14T01:04:13.011Z,98373.23
2018-09-14T01:06:44.357Z,98372.97
2018-09-14T01:09:19.755Z,98373.70
2018-09-14T01:11:51.457Z,98371.50
2018-09-14T01:14:22.977Z,98369.34
2018-09-14T01:16:54.669Z,98364.06
2018-09-14T01:19:25.534Z,98364.66
2018-09-14T01:21:56.222Z,98371.44
2018-09-14T01:24:26.590Z,98371.78
2018-09-14T01:26:57.700Z,98379.59
2018-09-14T01:29:28.304Z,98373.19
2018-09-14T01:31:58.575Z,98373.00
2018-09-14T01:34:29.266Z,98370.50
2018-09-14T01:37:03.327Z,98369.99
2018-09-14T01:39:34.172Z,98365.10
2018-09-14T01:42:06.444Z,98361.09
2018-09-14T01:44:37.716Z,98364.95
2018-09-14T01:47:08.634Z,98359.52
2018-09-14T01:49:38.897Z,98362.34
2018-09-14T01:52:09.406Z,98365.52
2018-09-14T01:54:41.666Z,98362.34
2018-09-14T01:57:13.435Z,98365.23
2018-09-14T01:59:43.790Z,98354.69
2018-09-14T02:02:14.622Z,98362.44
2018-09-14T02:04:45.084Z,98362.13
2018-09-14T02:07:15.501Z,98367.58
2018-09-14T02:09:46.054Z,98360.30
2018-09-14T02:12:17.852Z,98361.22
2018-09-14T02:14:48.648Z,98349.61
2018-09-14T02:17:20.168Z,98351.49
2018-09-14T02:19:50.305Z,98354.69
2018-09-14T02:22:21.764Z,98353.72
2018-09-14T02:24:52.621Z,98352.58
2018-09-14T02:27:23.080Z,98353.40
2018-09-14T02:29:54.923Z,98352.80
2018-09-14T02:32:26.174Z,98359.60
2018-09-14T02:34:56.675Z,98360.11
2018-09-14T02:37:27.198Z,98353.84
2018-09-14T02:39:58.484Z,98360.08
2018-09-14T02:42:31.086Z,98351.18
2018-09-14T04:57:01.082Z,98351.18
